Time;durP1;ratioP1;P1;durP2;ratioP2;P2;SDS_P1;SDS_P2;PMS_P1;PMS_P2;Temp;Humidity;BMP_temperature;BMP_pressure;BME280_temperature;BME280_humidity;BME280_pressure;Samples;Min_cycle;Max_cycle;Signal;HPM_P1;HPM_P2
2023/01/06 00:01:33;;;;;;;0.70;0.70;;;10.20;73.80;;;9.50;60.32;95418.00;4995900;28;20269;-36
2023/01/06 00:04:02;;;;;;;0.70;0.70;;;10.20;73.80;;;9.52;60.46;95404.72;4994886;28;20201;-37
2023/01/06 00:06:30;;;;;;;0.70;0.70;;;10.20;73.80;;;9.52;60.62;95405.56;4995891;28;20240;-39
2023/01/06 00:09:02;;;;;;;0.70;0.70;;;10.20;73.90;;;9.51;60.55;95408.34;4995696;28;20200;-37
2023/01/06 00:11:30;;;;;;;0.70;0.70;;;10.20;73.90;;;9.49;60.67;95397.25;4994748;28;20186;-36
2023/01/06 00:13:58;;;;;;;0.80;0.80;;;10.20;73.80;;;9.50;60.60;95404.09;4995643;28;20213;-37
2023/01/06 00:16:26;;;;;;;0.70;0.70;;;10.20;73.90;;;9.45;60.24;95397.56;4995675;28;20202;-37
2023/01/06 00:18:58;;;;;;;0.70;0.70;;;10.20;73.70;;;9.46;60.60;95398.41;4995642;28;20198;-37
2023/01/06 00:21:27;;;;;;;0.80;0.80;;;10.10;73.80;;;9.43;60.58;95401.34;4996030;28;20197;-36
2023/01/06 00:23:54;;;;;;;0.70;0.70;;;10.10;73.90;;;9.42;60.90;95407.56;4995653;28;20202;-36
2023/01/06 00:26:22;;;;;;;0.80;0.80;;;10.10;73.90;;;9.37;60.49;95405.47;4994456;28;20244;-36
2023/01/06 00:28:56;;;;;;;0.70;0.70;;;10.00;73.60;;;9.36;60.76;95409.09;4995476;28;20193;-36
2023/01/06 00:31:25;;;;;;;0.70;0.70;;;10.00;73.60;;;9.35;60.18;95404.84;4995415;28;20660;-36
2023/01/06 00:33:56;;;;;;;0.70;0.70;;;10.00;73.40;;;9.29;60.47;95395.06;4994666;28;20197;-36
2023/01/06 00:36:24;;;;;;;0.70;0.70;;;10.00;73.60;;;9.26;60.51;95406.69;4995478;28;20200;-36
2023/01/06 00:38:51;;;;;;;0.70;0.70;;;10.00;73.60;;;9.21;60.47;95406.34;4995687;28;20541;-36
2023/01/06 00:44:05;;;;;;;0.80;0.80;;;9.80;74.80;;;9.10;60.41;95409.38;4995411;28;20182;-36
2023/01/06 00:46:33;;;;;;;0.70;0.70;;;9.80;74.80;;;9.01;60.33;95415.59;5010679;28;20219;-36
2023/01/06 00:49:03;;;;;;;0.70;0.70;;;9.70;74.80;;;8.97;60.80;95408.09;4995287;28;20194;-36
2023/01/06 00:51:38;;;;;;;0.70;0.70;;;9.60;75.00;;;8.94;60.71;95423.31;4995179;28;20174;-36
2023/01/06 00:54:12;;;;;;;0.80;0.80;;;9.60;75.00;;;8.91;60.74;95421.03;4994647;28;20684;-36
2023/01/06 00:56:42;;;;;;;0.80;0.80;;;9.60;75.10;;;8.89;60.64;95426.44;4994602;28;20198;-36
2023/01/06 00:59:11;;;;;;;0.70;0.70;;;9.50;75.10;;;8.87;60.59;95425.78;4994676;28;20201;-36
2023/01/06 01:01:39;;;;;;;0.70;0.70;;;9.60;75.10;;;8.86;60.60;95421.56;4995055;28;20209;-36
2023/01/06 01:04:07;;;;;;;0.70;0.70;;;9.50;75.10;;;8.83;60.59;95426.31;4978371;28;20206;-36
2023/01/06 01:06:35;;;;;;;0.70;0.70;;;9.50;75.00;;;8.81;60.68;95429.06;4998753;28;20224;-36
2023/01/06 01:09:05;;;;;;;0.70;0.70;;;9.50;75.10;;;8.75;60.50;95432.38;4982011;28;20194;-36
2023/01/06 01:14:20;;;;;;;0.70;0.70;;;9.50;74.80;;;8.60;60.65;95442.69;4998295;28;20285;-36
2023/01/06 01:16:47;;;;;;;0.70;0.70;;;9.50;74.80;;;8.52;60.65;95442.72;4997979;28;20209;-36
2023/01/06 01:19:14;;;;;;;0.80;0.80;;;9.40;74.70;;;8.41;61.05;95447.28;4998755;28;20216;-36
2023/01/06 01:21:42;;;;;;;0.60;0.60;;;9.30;74.60;;;8.33;60.90;95457.72;4998573;28;20198;-36
2023/01/06 01:24:10;;;;;;;0.70;0.70;;;9.30;74.70;;;8.25;61.33;95455.09;4998650;28;20206;-36
2023/01/06 01:26:38;;;;;;;0.70;0.70;;;9.30;74.90;;;8.19;61.02;95446.16;5013641;28;20300;-36
2023/01/06 01:29:06;;;;;;;0.70;0.70;;;9.20;75.00;;;8.13;61.46;95447.59;4998852;28;20264;-36
2023/01/06 01:31:33;;;;;;;0.70;0.70;;;9.10;75.00;;;8.04;61.40;95443.34;4997552;28;20205;-36
2023/01/06 01:34:01;;;;;;;0.70;0.70;;;9.10;75.10;;;7.96;61.77;95449.41;4997496;28;20296;-36
2023/01/06 01:36:28;;;;;;;0.80;0.80;;;9.00;75.10;;;7.91;61.79;95443.00;4998614;28;20208;-36
2023/01/06 01:38:56;;;;;;;0.70;0.70;;;8.90;75.00;;;7.88;61.82;95433.72;4998413;28;20197;-37
2023/01/06 01:41:25;;;;;;;0.70;0.70;;;8.90;75.00;;;7.82;61.67;95443.03;4997280;28;20202;-36
2023/01/06 01:44:00;;;;;;;0.70;0.70;;;8.80;75.00;;;7.77;61.58;95437.44;4998211;28;20212;-36
2023/01/06 01:46:40;;;;;;;0.70;0.70;;;8.80;75.00;;;7.66;61.55;95435.94;4998189;28;20644;-36
2023/01/06 01:49:25;;;;;;;0.70;0.70;;;8.70;75.00;;;7.56;61.49;95435.28;4997374;28;20280;-36
2023/01/06 01:51:55;;;;;;;0.70;0.70;;;8.60;74.90;;;7.45;61.95;95435.59;4997140;28;20524;-36
2023/01/06 01:54:31;;;;;;;0.70;0.70;;;8.60;74.90;;;7.37;61.91;95445.03;4998130;28;20182;-36
2023/01/06 01:57:07;;;;;;;0.70;0.70;;;8.50;75.00;;;7.29;62.91;95444.22;4997337;28;20192;-37
2023/01/06 01:59:37;;;;;;;0.80;0.80;;;8.40;75.40;;;7.23;62.78;95450.84;4997081;28;20286;-36
2023/01/06 02:02:04;;;;;;;0.70;0.70;;;8.30;75.50;;;7.18;62.81;95440.09;4997494;28;20229;-36
2023/01/06 02:04:36;;;;;;;0.70;0.70;;;8.20;75.50;;;7.13;62.93;95440.56;4997118;28;20198;-36
2023/01/06 02:07:05;;;;;;;0.70;0.70;;;8.20;75.70;;;7.08;62.93;95437.59;4997041;28;20680;-36
2023/01/06 02:10:04;;;;;;;0.80;0.80;;;8.10;75.60;;;7.02;63.30;95433.81;4980838;28;20198;-36
2023/01/06 02:12:31;;;;;;;0.80;0.80;;;8.00;75.90;;;7.02;63.71;95439.03;4991823;28;20229;-36
2023/01/06 02:14:59;;;;;;;0.70;0.70;;;8.00;76.30;;;7.03;63.74;95438.06;4997888;28;20182;-36
2023/01/06 02:17:46;;;;;;;0.70;0.70;;;7.90;76.40;;;7.07;63.83;95427.31;5011900;28;20209;-36
2023/01/06 02:20:57;;;;;;;0.80;0.80;;;7.90;76.40;;;7.10;63.50;95434.84;4997742;28;20188;-36
2023/01/06 02:24:11;;;;;;;0.70;0.70;;;7.90;76.50;;;7.13;63.84;95424.91;4997776;28;20665;-36
2023/01/06 02:26:49;;;;;;;0.70;0.70;;;7.90;76.60;;;7.23;64.05;95427.38;4996504;28;20249;-36
2023/01/06 02:30:03;;;;;;;0.80;0.80;;;7.90;76.80;;;7.31;63.92;95427.41;4996563;28;20190;-36
2023/01/06 02:33:20;;;;;;;0.90;0.90;;;8.00;76.90;;;7.48;63.67;95423.06;4996833;28;20198;-36
2023/01/06 02:36:09;;;;;;;0.70;0.70;;;8.10;76.90;;;7.57;63.22;95420.44;4937790;29;20282;-36
2023/01/06 02:39:08;;;;;;;0.70;0.70;;;8.20;76.90;;;7.65;63.21;95428.28;4922404;29;20263;-36
2023/01/06 02:41:54;;;;;;;0.70;0.70;;;8.30;76.80;;;7.75;63.15;95430.75;4999083;28;20212;-36
2023/01/06 02:44:47;;;;;;;0.80;0.80;;;8.40;76.60;;;7.82;62.92;95439.56;4980232;28;20194;-36
2023/01/06 02:47:38;;;;;;;0.70;0.70;;;8.50;76.30;;;7.88;62.72;95435.50;4996404;28;20560;-36
2023/01/06 02:50:41;;;;;;;0.70;0.70;;;8.50;76.30;;;7.93;62.53;95422.78;4996484;28;20194;-36
2023/01/06 02:53:40;;;;;;;0.70;0.70;;;8.50;76.00;;;7.96;62.25;95431.09;4995952;28;20222;-36
2023/01/06 02:56:08;;;;;;;0.70;0.70;;;8.60;76.10;;;7.97;62.08;95421.47;5012343;28;20249;-37
2023/01/06 02:58:58;;;;;;;0.70;0.70;;;8.70;75.90;;;7.98;62.15;95421.31;4996130;28;20198;-38
2023/01/06 03:01:32;;;;;;;0.80;0.80;;;8.70;75.80;;;8.03;61.89;95423.41;4995731;28;20197;-36
2023/01/06 03:04:04;;;;;;;0.70;0.70;;;8.70;75.70;;;8.09;62.06;95428.03;4996187;28;20633;-36
2023/01/06 03:06:35;;;;;;;0.70;0.70;;;8.70;75.70;;;8.13;61.92;95439.75;5012105;28;20214;-36
2023/01/06 03:09:04;;;;;;;0.70;0.70;;;8.80;75.70;;;8.20;61.54;95431.28;4964208;28;20195;-36
2023/01/06 03:11:38;;;;;;;0.70;0.70;;;8.80;75.50;;;8.27;61.51;95419.19;4996457;28;20189;-36
2023/01/06 03:14:25;;;;;;;0.70;0.70;;;8.90;75.30;;;8.28;61.37;95424.25;4996033;28;20237;-36
2023/01/06 03:16:53;;;;;;;0.70;0.70;;;8.90;75.20;;;8.33;61.61;95419.31;4980447;28;20580;-39
2023/01/06 03:19:23;;;;;;;0.80;0.80;;;9.00;75.40;;;8.39;61.21;95415.25;4995566;28;20213;-37
2023/01/06 03:21:51;;;;;;;0.70;0.70;;;9.00;75.10;;;8.44;61.10;95419.97;4996618;28;20230;-37
2023/01/06 03:24:21;;;;;;;0.80;0.80;;;9.10;75.20;;;8.48;61.13;95418.69;4979871;28;20569;-37
2023/01/06 03:26:51;;;;;;;0.70;0.70;;;9.10;75.20;;;8.49;60.84;95420.31;4995260;28;20239;-36
2023/01/06 03:29:22;;;;;;;0.80;0.80;;;9.10;75.20;;;8.57;60.89;95411.63;4979484;28;20220;-36
2023/01/06 03:32:22;;;;;;;0.70;0.70;;;9.20;75.20;;;8.61;61.02;95402.50;4995366;28;20645;-37
2023/01/06 03:35:23;;;;;;;0.73;0.73;;;9.20;75.20;;;8.62;60.77;95399.72;4995704;28;20196;-39
2023/01/06 03:38:39;;;;;;;0.70;0.70;;;9.30;75.00;;;8.67;60.59;95403.59;4991630;28;20209;-37
2023/01/06 03:45:01;;;;;;;0.50;0.50;;;9.30;75.30;;;8.67;60.51;95396.59;4997821;28;20244;-37
2023/01/06 03:47:59;;;;;;;0.70;0.70;;;9.30;75.00;;;8.70;60.22;95398.88;5011421;28;20222;-40
2023/01/06 03:50:36;;;;;;;0.70;0.70;;;9.40;74.70;;;8.72;60.32;95388.25;4995818;28;20241;-40
2023/01/06 03:53:26;;;;;;;0.70;0.70;;;9.40;75.30;;;8.72;60.26;95393.50;4978922;28;20694;-36
2023/01/06 03:56:25;;;;;;;0.80;0.80;;;9.40;74.80;;;8.75;60.38;95395.75;4995160;28;20208;-39
2023/01/06 03:58:58;;;;;;;0.70;0.70;;;9.40;74.80;;;8.74;60.34;95388.88;4994919;28;20633;-44
2023/01/06 04:01:26;;;;;;;0.70;0.70;;;9.40;74.90;;;8.75;60.09;95382.66;4995924;28;20174;-45
2023/01/06 04:03:55;;;;;;;0.70;0.70;;;9.40;74.80;;;8.74;60.22;95386.25;4979272;28;20240;-40
2023/01/06 04:06:26;;;;;;;0.70;0.70;;;9.40;74.90;;;8.67;59.99;95383.53;4994769;28;20235;-39
2023/01/06 04:08:53;;;;;;;0.70;0.70;;;9.40;74.60;;;8.63;59.91;95385.66;4994834;28;20208;-39
2023/01/06 04:14:07;;;;;;;0.70;0.70;;;9.40;74.70;;;8.49;60.54;95397.63;4994880;28;20655;-39
2023/01/06 04:16:35;;;;;;;0.70;0.70;;;9.30;74.70;;;8.47;60.62;95396.13;4994710;28;20297;-39
2023/01/06 04:19:02;;;;;;;0.75;0.75;;;9.30;74.80;;;8.46;60.78;95386.66;4994651;28;20264;-39
2023/01/06 04:21:30;;;;;;;0.70;0.70;;;9.30;75.00;;;8.42;60.94;95380.13;5011004;28;20339;-39
2023/01/06 04:23:58;;;;;;;0.70;0.70;;;9.30;75.00;;;8.39;61.07;95377.84;4995332;28;20656;-39
2023/01/06 04:26:24;;;;;;;0.80;0.80;;;9.20;75.20;;;8.36;60.99;95388.63;4995278;28;20253;-39
2023/01/06 04:28:51;;;;;;;0.70;0.70;;;9.20;75.10;;;8.32;61.01;95386.34;4995516;28;20264;-40
2023/01/06 04:31:19;;;;;;;0.80;0.80;;;9.30;75.20;;;8.29;61.24;95381.44;4994565;28;20228;-39
2023/01/06 04:33:48;;;;;;;0.70;0.70;;;9.20;75.10;;;8.24;61.21;95380.31;4994875;28;20580;-39
2023/01/06 04:36:16;;;;;;;0.70;0.70;;;9.20;75.20;;;8.25;61.24;95380.16;4994490;28;20202;-39
2023/01/06 04:38:47;;;;;;;0.80;0.80;;;9.10;75.20;;;8.24;61.53;95381.13;4995932;28;20182;-36
2023/01/06 04:41:15;;;;;;;0.70;0.70;;;9.10;75.20;;;8.25;61.39;95384.56;4998694;28;20533;-39
2023/01/06 04:43:42;;;;;;;0.70;0.70;;;9.10;75.20;;;8.26;61.66;95384.38;5014583;28;20197;-40
2023/01/06 04:46:09;;;;;;;0.70;0.70;;;9.10;75.20;;;8.27;61.68;95383.41;4998443;28;20285;-37
2023/01/06 04:48:36;;;;;;;0.60;0.60;;;9.10;75.20;;;8.33;61.73;95381.94;4999738;28;20221;-37
2023/01/06 04:51:06;;;;;;;0.80;0.80;;;9.10;75.20;;;8.40;61.95;95384.69;4998410;28;20205;-37
2023/01/06 04:53:39;;;;;;;0.70;0.70;;;9.10;75.20;;;8.46;61.71;95390.09;4999214;28;20186;-37
2023/01/06 04:56:10;;;;;;;0.70;0.70;;;9.20;75.40;;;8.52;61.75;95383.41;4999262;28;20178;-37
2023/01/06 04:58:38;;;;;;;0.80;0.80;;;9.20;75.40;;;8.61;61.86;95387.63;4999363;28;20191;-37
2023/01/06 05:01:11;;;;;;;0.70;0.70;;;9.30;75.50;;;8.69;61.79;95384.19;4999138;28;20202;-37
2023/01/06 05:03:39;;;;;;;0.70;0.70;;;9.30;75.40;;;8.76;61.72;95385.13;4998867;28;20212;-37
2023/01/06 05:06:10;;;;;;;0.70;0.70;;;9.40;75.50;;;8.83;61.77;95387.09;4999098;28;20197;-37
2023/01/06 05:08:39;;;;;;;0.68;0.68;;;9.40;75.40;;;8.87;61.60;95388.38;4999138;28;20218;-37
2023/01/06 05:11:11;;;;;;;0.80;0.80;;;9.50;75.40;;;8.91;61.59;95387.03;4998046;28;20206;-37
2023/01/06 05:13:39;;;;;;;0.80;0.80;;;9.50;75.40;;;8.97;61.79;95381.13;4998749;28;20193;-37
2023/01/06 05:16:23;;;;;;;0.80;0.80;;;9.60;75.60;;;9.00;62.15;95380.78;4997959;28;20213;-37
2023/01/06 05:18:51;;;;;;;0.70;0.70;;;9.60;76.20;;;9.02;62.13;95380.59;4998715;28;20229;-37
2023/01/06 05:21:18;;;;;;;0.68;0.68;;;9.60;76.10;;;9.03;62.18;95369.97;4999244;28;20248;-37
2023/01/06 05:23:45;;;;;;;0.70;0.70;;;9.70;76.10;;;9.04;62.26;95374.22;4997692;28;20198;-37
2023/01/06 05:26:21;;;;;;;0.77;0.77;;;9.70;76.00;;;9.06;62.32;95379.31;4998517;28;20230;-37
2023/01/06 05:28:48;;;;;;;0.80;0.80;;;9.70;76.00;;;9.07;62.56;95376.50;4998744;28;20611;-37
2023/01/06 05:31:16;;;;;;;0.60;0.60;;;9.80;76.00;;;9.09;62.44;95373.72;4998554;28;20198;-36
2023/01/06 05:33:43;;;;;;;0.60;0.60;;;9.80;76.00;;;9.10;62.56;95373.53;4998873;28;20190;-37
2023/01/06 05:36:14;;;;;;;0.60;0.60;;;9.80;76.10;;;9.11;62.66;95372.56;4997622;28;20205;-37
2023/01/06 05:38:41;;;;;;;0.70;0.70;;;9.90;76.20;;;9.14;62.45;95371.38;4998629;28;20181;-37
2023/01/06 05:41:09;;;;;;;0.70;0.70;;;9.90;76.20;;;9.14;62.60;95381.84;4998479;28;20212;-38
2023/01/06 05:43:37;;;;;;;0.70;0.70;;;9.90;76.10;;;9.15;62.49;95382.69;4998189;28;20205;-37
2023/01/06 05:46:10;;;;;;;0.80;0.80;;;9.90;76.10;;;9.15;62.57;95380.88;4998286;28;20582;-37
2023/01/06 05:48:38;;;;;;;0.70;0.70;;;9.90;76.10;;;9.16;62.46;95392.97;4998238;28;20217;-37
2023/01/06 05:51:13;;;;;;;0.70;0.70;;;9.90;76.00;;;9.17;62.73;95396.41;4997207;28;20205;-37
2023/01/06 05:53:43;;;;;;;0.90;0.90;;;9.90;76.20;;;9.19;62.72;95397.06;4998193;28;20227;-37
2023/01/06 05:56:14;;;;;;;0.60;0.60;;;9.90;76.30;;;9.19;62.65;95390.03;4998475;28;20197;-37
2023/01/06 05:58:45;;;;;;;0.70;0.70;;;10.00;75.00;;;9.20;62.96;95393.44;4998158;28;20193;-37
2023/01/06 06:01:21;;;;;;;0.70;0.70;;;10.00;75.20;;;9.22;62.90;95386.25;4998037;28;20186;-37
2023/01/06 06:03:51;;;;;;;0.70;0.70;;;10.00;75.30;;;9.24;62.99;95397.34;4998297;28;20193;-37
2023/01/06 06:06:20;;;;;;;0.70;0.70;;;10.00;75.30;;;9.25;62.94;95394.59;4997063;28;20216;-36
2023/01/06 06:08:48;;;;;;;0.70;0.70;;;10.00;75.30;;;9.27;63.16;95397.03;4997807;28;20533;-37
2023/01/06 06:11:18;;;;;;;0.80;0.80;;;10.00;75.50;;;9.31;63.20;95400.91;4997831;28;20190;-37
2023/01/06 06:13:53;;;;;;;0.70;0.70;;;10.00;75.60;;;9.32;63.37;95404.38;4997040;28;20202;-37
2023/01/06 06:16:26;;;;;;;0.70;0.70;;;10.00;75.60;;;9.33;63.79;95403.38;4996906;28;20193;-37
2023/01/06 06:18:56;;;;;;;0.70;0.70;;;10.00;75.70;;;9.38;63.32;95403.69;4996765;28;20208;-37
2023/01/06 06:21:27;;;;;;;0.70;0.70;;;10.10;75.80;;;9.41;63.05;95393.69;4997598;28;20233;-37
2023/01/06 06:23:57;;;;;;;0.70;0.70;;;10.10;75.80;;;9.45;63.40;95396.75;4998046;28;20493;-43
2023/01/06 06:26:24;;;;;;;0.70;0.70;;;10.10;75.60;;;9.48;63.33;95395.59;4996554;28;20229;-40
2023/01/06 06:28:51;;;;;;;0.80;0.80;;;10.20;75.70;;;9.48;63.23;95391.16;4980503;28;20213;-40
2023/01/06 06:31:27;;;;;;;0.70;0.70;;;10.20;75.60;;;9.49;63.07;95384.94;4997532;28;20197;-40
2023/01/06 06:33:58;;;;;;;0.80;0.80;;;10.20;75.50;;;9.48;62.92;95378.06;4997307;28;20210;-41
2023/01/06 06:36:26;;;;;;;0.82;0.82;;;10.30;75.50;;;9.48;63.09;95390.38;4996778;28;20193;-39
2023/01/06 06:38:54;;;;;;;0.63;0.63;;;10.30;75.30;;;9.45;63.43;95387.09;4997518;28;20268;-39
2023/01/06 06:41:23;;;;;;;0.70;0.70;;;10.30;75.20;;;9.45;62.92;95381.06;4997262;28;20638;-39
2023/01/06 06:43:51;;;;;;;0.80;0.80;;;10.30;75.20;;;9.44;63.19;95392.50;4997037;28;20291;-37
2023/01/06 06:46:19;;;;;;;0.70;0.70;;;10.30;75.10;;;9.43;63.26;95388.25;4997141;28;20209;-39
2023/01/06 06:48:48;;;;;;;0.70;0.70;;;10.30;75.20;;;9.42;63.25;95387.47;4996700;28;20221;-37
2023/01/06 06:51:18;;;;;;;0.90;0.90;;;10.30;75.30;;;9.41;63.21;95385.81;4997426;28;20216;-37
2023/01/06 06:53:45;;;;;;;0.70;0.70;;;10.30;75.30;;;9.41;63.11;95387.59;4996832;28;20190;-37
2023/01/06 06:56:15;;;;;;;0.70;0.70;;;10.20;75.30;;;9.36;63.17;95382.09;4997166;28;20228;-37
2023/01/06 06:58:42;;;;;;;0.70;0.70;;;10.20;75.20;;;9.31;62.94;95381.78;4996917;28;20581;-37
2023/01/06 07:01:14;;;;;;;0.63;0.63;;;10.20;75.00;;;9.22;62.69;95381.81;4997012;28;20253;-37
2023/01/06 07:03:42;;;;;;;0.70;0.70;;;10.20;74.70;;;9.14;62.60;95387.09;4995496;28;20196;-37
2023/01/06 07:06:13;;;;;;;0.80;0.80;;;10.10;74.60;;;9.02;62.55;95384.06;4996159;28;20225;-37
2023/01/06 07:08:45;;;;;;;0.80;0.80;;;10.00;74.60;;;8.88;62.87;95390.81;4996098;28;20202;-37
2023/01/06 07:11:13;;;;;;;0.70;0.70;;;10.00;74.60;;;8.79;63.00;95389.22;4996709;28;20197;-37
2023/01/06 07:13:40;;;;;;;0.80;0.80;;;9.90;75.70;;;8.71;63.17;95394.47;4995618;28;20259;-38
2023/01/06 07:16:08;;;;;;;0.70;0.70;;;9.80;75.80;;;8.65;63.40;95396.78;4996703;28;20193;-37
2023/01/06 07:18:36;;;;;;;0.70;0.70;;;9.70;76.10;;;8.62;64.21;95393.69;4996503;28;20225;-37
2023/01/06 07:21:04;;;;;;;0.70;0.70;;;9.60;76.40;;;8.61;63.57;95395.47;4996505;28;20535;-37
2023/01/06 07:23:31;;;;;;;0.70;0.70;;;9.60;76.60;;;8.61;64.20;95394.66;4996527;28;20213;-38
2023/01/06 07:26:01;;;;;;;0.70;0.70;;;9.60;76.80;;;8.61;64.07;95395.47;4996215;28;20292;-37
2023/01/06 07:28:31;;;;;;;0.70;0.70;;;9.50;76.90;;;8.63;64.80;95395.31;4996351;28;20213;-37
2023/01/06 07:30:59;;;;;;;0.60;0.60;;;9.50;77.50;;;8.68;64.63;95387.78;4995520;28;20198;-37
2023/01/06 07:33:28;;;;;;;0.60;0.60;;;9.50;77.50;;;8.72;64.98;95389.06;4995373;28;20190;-39
2023/01/06 07:35:56;;;;;;;0.70;0.70;;;9.50;77.90;;;8.81;64.98;95390.69;4996462;28;20190;-37
2023/01/06 07:38:24;;;;;;;0.70;0.70;;;9.50;77.90;;;8.85;65.36;95388.53;4996067;28;20276;-37
2023/01/06 07:40:51;;;;;;;0.70;0.70;;;9.60;79.00;;;8.98;65.29;95385.38;4995516;28;20581;-37
2023/01/06 07:43:18;;;;;;;0.70;0.70;;;9.60;78.20;;;9.04;65.00;95381.25;4996011;28;20194;-40
2023/01/06 07:45:47;;;;;;;0.70;0.70;;;9.70;78.40;;;9.13;65.21;95386.28;4996278;28;20217;-45
2023/01/06 07:48:16;;;;;;;0.70;0.70;;;9.70;78.40;;;9.22;64.90;95394.91;4996297;28;20214;-38
2023/01/06 07:50:44;;;;;;;0.70;0.70;;;9.80;78.40;;;9.31;65.10;95392.25;4979656;28;20182;-39
2023/01/06 07:53:11;;;;;;;0.70;0.70;;;9.90;78.50;;;9.40;64.99;95386.81;4996012;28;20189;-37
2023/01/06 07:55:39;;;;;;;0.70;0.70;;;10.00;77.30;;;9.50;64.98;95388.41;4978923;28;20190;-36
2023/01/06 07:58:08;;;;;;;0.90;0.90;;;10.00;77.30;;;9.60;64.87;95389.78;4995931;28;20621;-37
2023/01/06 08:00:35;;;;;;;0.70;0.70;;;10.10;77.40;;;9.68;64.91;95390.72;4995959;28;20260;-41
2023/01/06 08:03:05;;;;;;;0.80;0.80;;;10.20;77.40;;;9.77;64.73;95392.31;4995874;28;20201;-37
2023/01/06 08:05:36;;;;;;;0.70;0.70;;;10.30;77.30;;;9.85;64.63;95400.09;4995768;28;20284;-39
2023/01/06 08:08:04;;;;;;;0.70;0.70;;;10.40;77.30;;;9.92;64.55;95395.81;4996045;28;20206;-37
2023/01/06 08:10:31;;;;;;;0.70;0.70;;;10.50;77.20;;;10.02;64.49;95400.81;4978921;28;20532;-39
2023/01/06 08:12:58;;;;;;;0.70;0.70;;;10.60;77.20;;;10.08;64.25;95396.63;4996004;28;20528;-37
2023/01/06 08:15:25;;;;;;;0.70;0.70;;;10.60;77.10;;;10.15;63.91;95394.94;4994655;28;20269;-40
2023/01/06 08:17:54;;;;;;;0.70;0.70;;;10.70;77.00;;;10.23;64.20;95386.22;4995978;28;20201;-39
2023/01/06 08:20:22;;;;;;;0.70;0.70;;;10.80;77.00;;;10.30;64.08;95389.75;4994829;28;20248;-39
2023/01/06 08:22:49;;;;;;;0.70;0.70;;;10.80;76.90;;;10.37;64.19;95387.25;4995712;28;20286;-47
2023/01/06 08:25:16;;;;;;;0.65;0.65;;;10.90;77.00;;;10.44;64.10;95382.94;4995119;28;20656;-39
2023/01/06 08:27:43;;;;;;;0.80;0.80;;;11.00;77.00;;;10.52;64.13;95393.34;4995511;28;20244;-37
2023/01/06 08:30:11;;;;;;;0.70;0.70;;;11.10;77.00;;;10.60;64.00;95386.38;4995591;28;20193;-37
2023/01/06 08:32:37;;;;;;;0.70;0.70;;;11.10;76.90;;;10.68;64.08;95386.28;4995709;28;20189;-36
2023/01/06 08:35:05;;;;;;;0.70;0.70;;;11.20;76.80;;;10.72;63.76;95382.31;4995367;28;20225;-39
2023/01/06 08:37:32;;;;;;;0.80;0.80;;;11.30;76.80;;;10.77;63.75;95382.59;4995796;28;20197;-38
2023/01/06 08:40:00;;;;;;;0.70;0.70;;;11.40;77.50;;;10.80;63.54;95382.22;4994896;28;20193;-39
2023/01/06 08:42:27;;;;;;;0.70;0.70;;;11.40;76.50;;;10.85;63.59;95379.03;4995426;28;20213;-38
2023/01/06 08:44:54;;;;;;;0.80;0.80;;;11.50;76.50;;;10.89;63.55;95377.69;4995410;28;20197;-39
2023/01/06 08:47:21;;;;;;;0.70;0.70;;;11.50;76.50;;;10.93;63.74;95384.19;4995559;28;20554;-36
2023/01/06 08:49:48;;;;;;;0.70;0.70;;;11.60;76.50;;;11.00;63.63;95384.31;4995409;28;20291;-37
2023/01/06 08:52:15;;;;;;;0.70;0.70;;;11.70;76.60;;;11.05;63.49;95381.94;4995579;28;20220;-40
2023/01/06 08:54:42;;;;;;;0.80;0.80;;;11.70;76.50;;;11.11;63.49;95383.81;4995458;28;20297;-39
2023/01/06 08:57:10;;;;;;;0.80;0.80;;;11.70;76.50;;;11.17;63.29;95382.28;4994414;28;20205;-39
2023/01/06 08:59:37;;;;;;;0.70;0.70;;;11.80;76.50;;;11.24;63.67;95398.91;4995551;28;20221;-38
2023/01/06 09:02:04;;;;;;;0.80;0.80;;;11.90;76.50;;;11.30;63.49;95402.63;4995249;28;20586;-37
2023/01/06 09:04:31;;;;;;;0.68;0.68;;;11.90;76.50;;;11.37;63.61;95399.06;4995110;28;20198;-37
2023/01/06 09:06:58;;;;;;;0.60;0.60;;;12.00;76.60;;;11.46;63.33;95410.31;4995214;28;20256;-37
2023/01/06 09:09:25;;;;;;;0.80;0.80;;;12.00;76.50;;;11.54;63.34;95404.09;4994820;28;20531;-41
2023/01/06 09:11:52;;;;;;;0.65;0.65;;;12.10;76.50;;;11.61;63.37;95412.06;4995664;28;20194;-42
2023/01/06 09:14:19;;;;;;;0.70;0.70;;;12.20;76.40;;;11.69;63.26;95404.06;5010640;28;20655;-41
2023/01/06 09:16:47;;;;;;;0.80;0.80;;;12.20;76.40;;;11.78;63.38;95407.38;4995644;28;20625;-36
2023/01/06 09:19:15;;;;;;;0.65;0.65;;;12.30;76.40;;;11.88;63.04;95412.31;4995549;28;20629;-47
2023/01/06 09:21:44;;;;;;;0.65;0.65;;;12.40;76.30;;;11.94;62.91;95411.59;4995723;28;20202;-36
2023/01/06 09:24:13;;;;;;;0.70;0.70;;;12.40;76.30;;;11.99;62.99;95417.94;4995186;28;20197;-37
2023/01/06 09:26:41;;;;;;;0.68;0.68;;;12.50;76.40;;;12.09;62.99;95414.19;4997109;28;20247;-36
2023/01/06 09:29:07;;;;;;;0.70;0.70;;;12.60;76.40;;;12.17;63.18;95412.25;5007208;28;20226;-44
2023/01/06 09:31:35;;;;;;;0.65;0.65;;;12.70;76.50;;;12.27;63.08;95413.75;5019055;28;20201;-37
2023/01/06 09:34:03;;;;;;;0.60;0.60;;;12.70;76.50;;;12.33;63.03;95405.88;5019265;28;20325;-40
2023/01/06 09:36:31;;;;;;;0.70;0.70;;;12.80;76.60;;;12.42;62.68;95411.03;5017891;28;20684;-44
2023/01/06 09:38:58;;;;;;;0.70;0.70;;;12.90;76.60;;;12.47;62.66;95412.09;5018363;28;20197;-36
2023/01/06 09:41:56;;;;;;;0.75;0.75;;;13.00;76.70;;;12.56;63.02;95399.59;5013247;28;20646;-39
2023/01/06 09:44:45;;;;;;;0.80;0.80;;;13.10;76.80;;;12.66;62.86;95404.50;4999076;28;20506;-37
2023/01/06 09:47:18;;;;;;;0.60;0.60;;;13.10;76.80;;;12.77;62.98;95403.16;4998336;28;20194;-38
2023/01/06 09:49:58;;;;;;;0.60;0.60;;;13.30;76.90;;;12.85;63.12;95399.56;4996813;28;20236;-36
2023/01/06 09:53:11;;;;;;;0.80;0.80;;;13.40;77.00;;;12.94;63.08;95395.78;5018560;28;20584;-51
2023/01/06 09:55:44;;;;;;;0.60;0.60;;;13.50;76.70;;;13.03;62.83;95397.22;5015068;28;20247;-47
2023/01/06 09:58:15;;;;;;;0.68;0.68;;;13.60;76.60;;;13.10;62.21;95392.00;5018298;28;20185;-35
2023/01/06 10:00:52;;;;;;;0.70;0.70;;;13.60;76.00;;;13.13;61.84;95386.31;5017469;28;20292;-38
2023/01/06 10:03:23;;;;;;;0.60;0.60;;;13.70;75.80;;;13.20;61.93;95383.75;5018249;28;20189;-41
2023/01/06 10:06:30;;;;;;;0.68;0.68;;;13.70;76.00;;;13.24;62.11;95375.25;5033687;28;20181;-40
2023/01/06 10:09:30;;;;;;;0.70;0.70;;;13.80;75.60;;;13.26;61.40;95369.78;4996893;28;20220;-37
2023/01/06 10:12:23;;;;;;;0.80;0.80;;;13.80;75.70;;;13.24;60.85;95363.88;5004131;28;20223;-37
2023/01/06 10:15:27;;;;;;;0.80;0.80;;;13.90;75.50;;;13.24;61.44;95355.97;5008983;28;20209;-37
2023/01/06 10:18:31;;;;;;;0.70;0.70;;;13.90;75.20;;;13.28;61.82;95347.50;4997334;28;20269;-37
2023/01/06 10:21:41;;;;;;;0.80;0.80;;;13.90;75.40;;;13.36;61.94;95350.97;4997857;28;20200;-37
2023/01/06 10:24:46;;;;;;;0.52;0.52;;;14.00;75.80;;;13.41;61.52;95343.31;4999859;28;20680;-37
2023/01/06 10:27:39;;;;;;;0.70;0.70;;;14.00;75.30;;;13.45;61.21;95341.88;4998465;28;20491;-40
2023/01/06 10:30:31;;;;;;;0.60;0.60;;;14.00;75.30;;;13.48;60.90;95330.16;4996769;28;20217;-37
2023/01/06 10:33:04;;;;;;;0.60;0.60;;;14.10;75.40;;;13.49;60.63;95324.69;4996076;28;20190;-37
2023/01/06 10:35:32;;;;;;;0.65;0.65;;;14.10;75.10;;;13.49;60.53;95324.69;4996697;28;20192;-44
2023/01/06 10:38:04;;;;;;;0.70;0.70;;;14.10;75.30;;;13.55;61.30;95326.50;4996646;28;20194;-37
2023/01/06 10:40:35;;;;;;;0.70;0.70;;;14.10;76.10;;;13.59;60.87;95314.53;4998482;28;20173;-36
2023/01/06 10:43:07;;;;;;;0.60;0.60;;;14.20;75.20;;;13.71;61.47;95306.06;5007038;28;20291;-37
2023/01/06 10:45:41;;;;;;;0.80;0.80;;;14.30;75.60;;;13.83;60.92;95306.25;5011361;28;20198;-46
2023/01/06 10:48:17;;;;;;;0.80;0.80;;;14.30;75.30;;;13.91;60.74;95306.88;5008350;28;20208;-36
2023/01/06 10:50:45;;;;;;;0.80;0.80;;;14.40;74.80;;;13.92;59.85;95305.84;4997604;28;20173;-42
2023/01/06 10:53:15;;;;;;;0.60;0.60;;;14.50;75.00;;;14.06;60.55;95308.50;4996365;28;20821;-37
2023/01/06 10:56:00;;;;;;;0.75;0.75;;;14.50;75.10;;;14.15;60.76;95309.13;4996097;28;20271;-38
2023/01/06 10:58:45;;;;;;;0.60;0.60;;;14.60;74.80;;;14.27;60.20;95307.47;5012930;28;20216;-38
2023/01/06 11:01:26;;;;;;;0.65;0.65;;;14.80;74.50;;;14.33;59.62;95305.81;4995808;28;20190;-37
2023/01/06 11:04:11;;;;;;;0.70;0.70;;;14.80;74.20;;;14.40;59.51;95302.19;4995984;28;20348;-40
2023/01/06 11:06:45;;;;;;;0.70;0.70;;;14.90;74.30;;;14.44;59.14;95293.84;4996818;28;20507;-41